createdAt,value
2022-12-13T00:01:52.587Z,99190.00
2022-12-13T00:04:23.343Z,99190.00
2022-12-13T00:06:53.808Z,99182.00
2022-12-13T00:09:22.570Z,99179.00
2022-12-13T00:11:52.152Z,99175.00
2022-12-13T00:14:22.096Z,99175.00
2022-12-13T00:16:51.339Z,99170.00
2022-12-13T00:19:20.381Z,99170.00
2022-12-13T00:21:49.910Z,99173.00
2022-12-13T00:24:17.933Z,99172.00
2022-12-13T00:26:46.269Z,99177.00
2022-12-13T00:29:14.310Z,99170.00
2022-12-13T00:31:58.885Z,99166.00
2022-12-13T00:34:28.464Z,99147.00
2022-12-13T00:36:58.921Z,99168.00
2022-12-13T00:39:27.284Z,99178.00
2022-12-13T00:41:55.327Z,99175.00
2022-12-13T00:44:23.594Z,99177.00
2022-12-13T00:46:53.216Z,99165.00
2022-12-13T00:49:21.386Z,99165.00
2022-12-13T00:51:49.704Z,99167.00
2022-12-13T00:54:18.286Z,99152.00
2022-12-13T00:56:46.449Z,99157.00
2022-12-13T00:59:16.674Z,99161.00
2022-12-13T01:01:45.685Z,99138.00
2022-12-13T01:04:15.265Z,99168.00
2022-12-13T01:06:46.868Z,99147.00
2022-12-13T01:09:19.549Z,99162.00
2022-12-13T01:11:49.801Z,99167.00
2022-12-13T01:14:19.236Z,99168.00
2022-12-13T01:16:47.375Z,99162.00
2022-12-13T01:19:17.348Z,99149.00
2022-12-13T01:21:45.415Z,99154.00
2022-12-13T01:24:13.507Z,99148.00
2022-12-13T01:26:41.513Z,99154.00
2022-12-13T01:29:11.360Z,99152.00
2022-12-13T01:31:41.518Z,99150.00
2022-12-13T01:34:11.298Z,99147.00
2022-12-13T01:36:42.186Z,99124.00
2022-12-13T01:39:14.407Z,99150.00
2022-12-13T01:41:45.297Z,99145.00
2022-12-13T01:45:01.865Z,99143.00
2022-12-13T01:47:36.822Z,99140.00
2022-12-13T01:50:12.725Z,99140.00
2022-12-13T01:52:44.862Z,99136.00
2022-12-13T01:55:17.851Z,99147.00
2022-12-13T01:57:48.900Z,99140.00
2022-12-13T02:00:18.427Z,99146.00
2022-12-13T02:02:49.040Z,99147.00
2022-12-13T02:05:26.307Z,99152.00
2022-12-13T02:07:59.017Z,99146.00
2022-12-13T02:10:29.506Z,99144.00
2022-12-13T02:12:58.767Z,99138.00
2022-12-13T02:15:35.266Z,99145.00
2022-12-13T02:18:46.963Z,99149.00
2022-12-13T02:21:29.556Z,99142.00
2022-12-13T02:24:48.781Z,99135.00
2022-12-13T02:28:01.161Z,99146.00
2022-12-13T02:30:40.292Z,99146.00
2022-12-13T02:33:34.483Z,99146.00
2022-12-13T02:36:12.241Z,99138.00
2022-12-13T02:38:52.341Z,99134.00
2022-12-13T02:41:34.268Z,99144.00
2022-12-13T02:44:21.818Z,99144.00
2022-12-13T02:47:00.145Z,99146.00
2022-12-13T02:49:38.040Z,99140.00
2022-12-13T02:52:13.758Z,99138.00
2022-12-13T02:54:50.770Z,99143.00
2022-12-13T02:57:34.630Z,99137.00
2022-12-13T03:00:08.111Z,99135.00
2022-12-13T03:02:49.788Z,99134.00
2022-12-13T03:05:48.958Z,99140.00
2022-12-13T03:08:25.295Z,99133.00
2022-12-13T03:11:06.192Z,99132.00
2022-12-13T03:13:45.027Z,99120.00
2022-12-13T03:16:25.816Z,99125.00
2022-12-13T03:19:00.111Z,99112.00
2022-12-13T03:21:28.883Z,99115.00
2022-12-13T03:23:56.952Z,99129.00
2022-12-13T03:26:27.916Z,99127.00
2022-12-13T03:28:56.397Z,99118.00
2022-12-13T03:31:24.597Z,99118.00
2022-12-13T03:33:52.742Z,99115.00
2022-12-13T03:36:23.181Z,99112.00
2022-12-13T03:38:54.819Z,99111.00
2022-12-13T03:41:31.309Z,99114.00
2022-12-13T03:43:59.968Z,99114.00
2022-12-13T03:46:28.107Z,99105.00
2022-12-13T03:48:56.195Z,99110.00
2022-12-13T03:51:25.641Z,99112.00
2022-12-13T03:53:53.701Z,99109.00
2022-12-13T03:56:21.761Z,99102.00
2022-12-13T03:58:49.926Z,99109.00
2022-12-13T04:01:36.737Z,99109.00
2022-12-13T04:04:04.865Z,99113.00
2022-12-13T04:06:34.281Z,99110.00
2022-12-13T04:09:02.585Z,99116.00
2022-12-13T04:12:02.698Z,99112.00
2022-12-13T04:14:30.704Z,99118.00
2022-12-13T04:16:58.767Z,99113.00
2022-12-13T04:19:26.810Z,99100.00
2022-12-13T04:21:56.271Z,99095.00
2022-12-13T04:24:31.299Z,99100.00
2022-12-13T04:27:01.022Z,99099.00
2022-12-13T04:29:34.334Z,99100.00
2022-12-13T04:32:04.058Z,99106.00
2022-12-13T04:34:37.117Z,99103.00
2022-12-13T04:37:07.473Z,99098.00
2022-12-13T04:39:35.798Z,99106.00
2022-12-13T04:42:04.515Z,99103.00
2022-12-13T04:44:36.776Z,99112.00
2022-12-13T04:47:05.902Z,99103.00
2022-12-13T04:49:34.573Z,99094.00
2022-12-13T04:52:03.365Z,99110.00
2022-12-13T04:54:36.317Z,99111.00
2022-12-13T04:57:07.529Z,99102.00
2022-12-13T04:59:35.902Z,99108.00
2022-12-13T05:02:05.677Z,99105.00
2022-12-13T05:04:34.352Z,99110.00
2022-12-13T05:07:02.705Z,99117.00
2022-12-13T05:09:32.380Z,99125.00
2022-12-13T05:12:01.749Z,99122.00
2022-12-13T05:14:30.768Z,99099.00
2022-12-13T05:16:58.954Z,99108.00
2022-12-13T05:19:30.373Z,99105.00
2022-12-13T05:22:01.564Z,99106.00
2022-12-13T05:24:32.610Z,99112.00
2022-12-13T05:27:01.128Z,99109.00
2022-12-13T05:29:29.410Z,99108.00
2022-12-13T05:31:57.512Z,99102.00
2022-12-13T05:34:25.587Z,99104.00
2022-12-13T05:36:54.109Z,99115.00
2022-12-13T05:39:28.841Z,99107.00
2022-12-13T05:42:01.507Z,99104.00
2022-12-13T05:44:31.856Z,99101.00
2022-12-13T05:47:02.195Z,99103.00
2022-12-13T05:49:32.047Z,99097.00
2022-12-13T05:52:00.209Z,99121.00
2022-12-13T05:54:28.224Z,99117.00
2022-12-13T05:56:57.798Z,99119.00
2022-12-13T05:59:25.836Z,99111.00
2022-12-13T06:01:54.179Z,99110.00
2022-12-13T06:04:23.403Z,99116.00
2022-12-13T06:06:52.341Z,99117.00
2022-12-13T06:09:21.293Z,99121.00
2022-12-13T06:11:50.015Z,99123.00
2022-12-13T06:14:22.556Z,99116.00
2022-12-13T06:16:52.582Z,99116.00
2022-12-13T06:19:21.210Z,99111.00
2022-12-13T06:21:49.531Z,99111.00
2022-12-13T06:24:19.752Z,99110.00
2022-12-13T06:26:49.004Z,99117.00
2022-12-13T06:29:23.475Z,99127.00
2022-12-13T06:32:02.312Z,99132.00
2022-12-13T06:34:34.337Z,99126.00
2022-12-13T06:37:03.209Z,99119.00
2022-12-13T06:39:32.306Z,99127.00
2022-12-13T06:42:03.111Z,99132.00
2022-12-13T06:44:32.763Z,99128.00
2022-12-13T06:47:10.335Z,99118.00
2022-12-13T06:49:42.263Z,99134.00
2022-12-13T06:52:12.808Z,99144.00
2022-12-13T06:54:40.979Z,99142.00
2022-12-13T06:57:09.218Z,99141.00
2022-12-13T06:59:38.927Z,99138.00
2022-12-13T07:02:24.435Z,99147.00
2022-12-13T07:04:54.601Z,99151.00
2022-12-13T07:07:23.073Z,99148.00
2022-12-13T07:09:51.198Z,99146.00
2022-12-13T07:12:20.847Z,99147.00
2022-12-13T07:14:50.326Z,99154.00
2022-12-13T07:17:32.716Z,99156.00
2022-12-13T07:20:07.645Z,99155.00
2022-12-13T07:22:42.937Z,99158.00
2022-12-13T07:25:28.074Z,99160.00
2022-12-13T07:28:01.360Z,99156.00
2022-12-13T07:30:34.049Z,99141.00
2022-12-13T07:33:08.828Z,99161.00
2022-12-13T07:35:37.876Z,99162.00
2022-12-13T07:38:07.418Z,99157.00
2022-12-13T07:40:36.155Z,99160.00
2022-12-13T07:43:05.070Z,99163.00
2022-12-13T07:45:34.667Z,99155.00
2022-12-13T07:48:06.967Z,99164.00
2022-12-13T07:50:37.146Z,99156.00
2022-12-13T07:53:07.563Z,99179.00
2022-12-13T07:55:36.584Z,99176.00
2022-12-13T07:58:06.945Z,99182.00
2022-12-13T08:00:38.022Z,99175.00
2022-12-13T08:03:06.759Z,99172.00
2022-12-13T08:05:38.147Z,99161.00
2022-12-13T08:08:10.306Z,99157.00
2022-12-13T08:10:39.077Z,99173.00
2022-12-13T08:13:07.214Z,99176.00
2022-12-13T08:15:35.276Z,99178.00
2022-12-13T08:18:05.065Z,99171.00
2022-12-13T08:20:33.539Z,99175.00
2022-12-13T08:23:03.010Z,99169.00
2022-12-13T08:25:32.340Z,99165.00
2022-12-13T08:28:02.453Z,99167.00
2022-12-13T08:30:33.223Z,99172.00
2022-12-13T08:33:05.016Z,99176.00
2022-12-13T08:35:35.280Z,99175.00
2022-12-13T08:38:04.324Z,99175.00
2022-12-13T08:40:32.564Z,99175.00
2022-12-13T08:43:00.631Z,99187.00
2022-12-13T08:45:29.082Z,99184.00
2022-12-13T08:48:00.537Z,99187.00
2022-12-13T08:50:30.244Z,99179.00
2022-12-13T08:52:59.751Z,99182.00
2022-12-13T08:55:32.355Z,99179.00
2022-12-13T08:58:08.345Z,99185.00
2022-12-13T09:00:38.942Z,99189.00
2022-12-13T09:03:09.896Z,99180.00
2022-12-13T09:05:45.775Z,99181.00
2022-12-13T09:08:24.424Z,99173.00
2022-12-13T09:11:01.468Z,99189.00
2022-12-13T09:13:43.714Z,99178.00
2022-12-13T09:16:23.500Z,99179.00
2022-12-13T09:18:54.817Z,99171.00
2022-12-13T09:21:30.911Z,99177.00
2022-12-13T09:24:02.358Z,99168.00
2022-12-13T09:26:37.943Z,99173.00
2022-12-13T09:29:11.242Z,99166.00
2022-12-13T09:31:40.607Z,99163.00
2022-12-13T09:34:10.093Z,99145.00
2022-12-13T09:36:38.728Z,99147.00
2022-12-13T09:39:08.132Z,99154.00
2022-12-13T09:41:42.787Z,99158.00
2022-12-13T09:44:31.602Z,99155.00
2022-12-13T09:47:13.129Z,99155.00
2022-12-13T09:49:53.258Z,99152.00
2022-12-13T09:52:26.527Z,99157.00
2022-12-13T09:55:07.857Z,99139.00
2022-12-13T09:57:38.769Z,99129.00
2022-12-13T10:00:15.975Z,99136.00
2022-12-13T10:02:47.615Z,99125.00
2022-12-13T10:05:34.174Z,99116.00
2022-12-13T10:08:13.035Z,99126.00
2022-12-13T10:10:43.641Z,99122.00
2022-12-13T10:13:20.120Z,99128.00
2022-12-13T10:15:54.980Z,99130.00
2022-12-13T10:18:33.781Z,99131.00
2022-12-13T10:21:04.595Z,99137.00
2022-12-13T10:23:47.012Z,99122.00
2022-12-13T10:26:24.694Z,99123.00
2022-12-13T10:29:04.625Z,99133.00
2022-12-13T10:31:42.604Z,99139.00
2022-12-13T10:34:24.405Z,99125.00
2022-12-13T10:36:53.074Z,99122.00
2022-12-13T10:39:40.162Z,99128.00
2022-12-13T10:42:23.451Z,99123.00
2022-12-13T10:45:15.617Z,99117.00
2022-12-13T10:47:46.875Z,99121.00
2022-12-13T10:50:28.196Z,99118.00
2022-12-13T10:53:00.074Z,99119.00
2022-12-13T10:55:32.984Z,99112.00
2022-12-13T10:58:09.390Z,99106.00
2022-12-13T11:00:41.743Z,99104.00
2022-12-13T11:03:14.143Z,99103.00
2022-12-13T11:05:42.229Z,99095.00
2022-12-13T11:08:17.702Z,99101.00
2022-12-13T11:10:46.087Z,99090.00
2022-12-13T11:13:29.297Z,99099.00
2022-12-13T11:15:57.818Z,99071.00
2022-12-13T11:18:30.494Z,99060.00
2022-12-13T11:21:03.557Z,99085.00
2022-12-13T11:23:37.737Z,99086.00
2022-12-13T11:26:11.322Z,99087.00
2022-12-13T11:29:10.088Z,99081.00
2022-12-13T11:31:54.302Z,99082.00
2022-12-13T11:34:44.323Z,99072.00
2022-12-13T11:37:26.140Z,99081.00
2022-12-13T11:40:02.004Z,99076.00
2022-12-13T11:42:36.224Z,99075.00
2022-12-13T11:45:22.611Z,99071.00
2022-12-13T11:48:03.211Z,99081.00
2022-12-13T11:50:36.963Z,99080.00
2022-12-13T11:53:30.413Z,99067.00
2022-12-13T11:56:07.086Z,99083.00
2022-12-13T11:59:03.094Z,99076.00
2022-12-13T12:01:43.040Z,99053.00
2022-12-13T12:04:22.607Z,99080.00
2022-12-13T12:07:08.298Z,99076.00
2022-12-13T12:09:54.743Z,99081.00
2022-12-13T12:12:32.259Z,99084.00
2022-12-13T12:15:16.135Z,99084.00
2022-12-13T12:17:46.883Z,99085.00
2022-12-13T12:20:23.228Z,99081.00
2022-12-13T12:23:03.120Z,99089.00
2022-12-13T12:25:48.398Z,99096.00
2022-12-13T12:28:35.435Z,99085.00
2022-12-13T12:31:25.515Z,99072.00
2022-12-13T12:34:10.810Z,99090.00
2022-12-13T12:37:02.712Z,99086.00
2022-12-13T12:39:57.232Z,99078.00
2022-12-13T12:43:13.988Z,99074.00
2022-12-13T12:45:56.998Z,99069.00
2022-12-13T12:49:08.365Z,99068.00
2022-12-13T12:51:48.326Z,99063.00
2022-12-13T12:54:39.221Z,99065.00
2022-12-13T12:57:19.819Z,99058.00
2022-12-13T13:00:04.767Z,99063.00
2022-12-13T13:02:42.591Z,99064.00
2022-12-13T13:05:22.052Z,99066.00
2022-12-13T13:07:57.093Z,99073.00
2022-12-13T13:10:27.154Z,99055.00
2022-12-13T13:13:12.468Z,99044.00
2022-12-13T13:15:58.214Z,99056.00
2022-12-13T13:18:48.943Z,99054.00
2022-12-13T13:21:49.631Z,99053.00
2022-12-13T13:24:24.659Z,99050.00
2022-12-13T13:26:56.532Z,99050.00
2022-12-13T13:29:36.755Z,99040.00
2022-12-13T13:32:29.128Z,99031.00
2022-12-13T13:35:56.336Z,99051.00
2022-12-13T13:38:55.619Z,99058.00
2022-12-13T13:41:57.131Z,99056.00
2022-12-13T13:45:04.207Z,99054.00
2022-12-13T13:47:44.567Z,99052.00
2022-12-13T13:51:11.076Z,99055.00
2022-12-13T13:54:33.114Z,99067.00
2022-12-13T13:58:09.689Z,99069.00
2022-12-13T14:01:02.800Z,99079.00
2022-12-13T14:04:14.785Z,99090.00
2022-12-13T14:07:34.092Z,99077.00
2022-12-13T14:10:19.204Z,99071.00
2022-12-13T14:14:05.278Z,99082.00
2022-12-13T14:17:46.628Z,99081.00
2022-12-13T14:20:58.959Z,99081.00
2022-12-13T14:23:44.015Z,99075.00
2022-12-13T14:26:32.093Z,99070.00
2022-12-13T14:29:05.089Z,99069.00
2022-12-13T14:31:40.255Z,99073.00
2022-12-13T14:34:20.407Z,99068.00
2022-12-13T14:36:57.633Z,99070.00
2022-12-13T14:39:26.679Z,99078.00
2022-12-13T14:41:58.644Z,99082.00
2022-12-13T14:44:30.480Z,99075.00
2022-12-13T14:47:02.809Z,99072.00
2022-12-13T14:49:35.333Z,99078.00
2022-12-13T14:52:10.224Z,99071.00
2022-12-13T14:54:48.444Z,99068.00
2022-12-13T14:57:20.641Z,99069.00
2022-12-13T14:59:50.671Z,99076.00
2022-12-13T15:02:31.224Z,99068.00
2022-12-13T15:05:02.611Z,99066.00
2022-12-13T15:07:37.256Z,99070.00
2022-12-13T15:10:20.972Z,99058.00
2022-12-13T15:12:53.351Z,99061.00
2022-12-13T15:15:31.281Z,99064.00
2022-12-13T15:18:18.922Z,99063.00
2022-12-13T15:20:54.928Z,99060.00
2022-12-13T15:23:34.618Z,99058.00
2022-12-13T15:26:13.859Z,99064.00
2022-12-13T15:29:09.606Z,99065.00
2022-12-13T15:31:40.001Z,99056.00
2022-12-13T15:34:36.985Z,99068.00
2022-12-13T15:37:29.659Z,99061.00
2022-12-13T15:40:06.689Z,99067.00
2022-12-13T15:42:38.020Z,99054.00
2022-12-13T15:45:20.782Z,99073.00
2022-12-13T15:47:50.478Z,99066.00
2022-12-13T15:50:34.267Z,99068.00
2022-12-13T15:53:05.909Z,99071.00
2022-12-13T15:55:36.550Z,99052.00
2022-12-13T15:58:18.858Z,99060.00
2022-12-13T16:00:50.647Z,99076.00
2022-12-13T16:03:23.830Z,99084.00
2022-12-13T16:05:55.625Z,99071.00
2022-12-13T16:08:31.461Z,99077.00
2022-12-13T16:11:01.218Z,99062.00
2022-12-13T16:13:32.395Z,99078.00
2022-12-13T16:16:26.583Z,99073.00
2022-12-13T16:18:58.300Z,99061.00
2022-12-13T16:21:27.715Z,99069.00
2022-12-13T16:23:56.210Z,99065.00
2022-12-13T16:26:27.989Z,99047.00
2022-12-13T16:28:58.548Z,99038.00
2022-12-13T16:31:35.406Z,99051.00
2022-12-13T16:34:03.786Z,99042.00
2022-12-13T16:36:32.339Z,99033.00
2022-12-13T16:39:00.561Z,99042.00
2022-12-13T16:41:29.037Z,99040.00
2022-12-13T16:44:01.486Z,99023.00
2022-12-13T16:47:13.270Z,99015.00
2022-12-13T16:49:24.541Z,99026.00
2022-12-13T16:51:53.390Z,99026.00
2022-12-13T16:54:23.848Z,99013.00
2022-12-13T16:56:53.896Z,99034.00
2022-12-13T16:59:24.895Z,99022.00
2022-12-13T17:01:55.140Z,99026.00
2022-12-13T17:04:27.048Z,99015.00
2022-12-13T17:06:55.662Z,99022.00
2022-12-13T17:09:25.659Z,99015.00
2022-12-13T17:11:53.795Z,99028.00
2022-12-13T17:14:21.906Z,99032.00
2022-12-13T17:16:49.965Z,99027.00
2022-12-13T17:19:19.703Z,99026.00
2022-12-13T17:21:49.206Z,99025.00
2022-12-13T17:24:17.528Z,99023.00
2022-12-13T17:26:53.718Z,99027.00
2022-12-13T17:29:24.573Z,99015.00
2022-12-13T17:31:53.204Z,99028.00
2022-12-13T17:34:22.807Z,99018.00
2022-12-13T17:36:50.921Z,99011.00
2022-12-13T17:39:19.084Z,99012.00
2022-12-13T17:41:54.675Z,99013.00
2022-12-13T17:44:25.870Z,99018.00
2022-12-13T17:46:55.663Z,98993.00
2022-12-13T17:49:26.059Z,99021.00
2022-12-13T17:51:55.262Z,98999.00
2022-12-13T17:54:25.188Z,99019.00
2022-12-13T17:56:54.360Z,99016.00
2022-12-13T17:59:23.784Z,99024.00
2022-12-13T18:01:52.213Z,99014.00
2022-12-13T18:04:20.619Z,99007.00
2022-12-13T18:06:52.179Z,99011.00
2022-12-13T18:09:20.256Z,99013.00
2022-12-13T18:11:48.482Z,99007.00
2022-12-13T18:14:16.527Z,98997.00
2022-12-13T18:16:44.530Z,99015.00
2022-12-13T18:19:14.808Z,99004.00
2022-12-13T18:21:44.095Z,98999.00
2022-12-13T18:24:13.798Z,99010.00
2022-12-13T18:26:42.020Z,99012.00
2022-12-13T18:29:10.312Z,99018.00
2022-12-13T18:31:38.706Z,99013.00
2022-12-13T18:34:07.166Z,99006.00
2022-12-13T18:36:35.859Z,99004.00
2022-12-13T18:39:05.391Z,99000.00
2022-12-13T18:41:35.224Z,98992.00
2022-12-13T18:44:06.556Z,98998.00
2022-12-13T18:46:36.967Z,98987.00
2022-12-13T18:49:07.154Z,98999.00
2022-12-13T18:51:35.528Z,98997.00
2022-12-13T18:54:03.592Z,99005.00
2022-12-13T18:56:31.676Z,99000.00
2022-12-13T18:59:01.021Z,98999.00
2022-12-13T19:01:30.349Z,99001.00
2022-12-13T19:03:58.455Z,98989.00
2022-12-13T19:06:28.954Z,98988.00
2022-12-13T19:08:59.539Z,98994.00
2022-12-13T19:11:29.086Z,98994.00
2022-12-13T19:13:57.852Z,99010.00
2022-12-13T19:16:28.029Z,99005.00
2022-12-13T19:18:56.253Z,99006.00
2022-12-13T19:21:24.418Z,99008.00
2022-12-13T19:23:57.284Z,99004.00
2022-12-13T19:26:28.987Z,99013.00
2022-12-13T19:28:59.182Z,99010.00
2022-12-13T19:31:32.052Z,99000.00
2022-12-13T19:34:03.496Z,99004.00
2022-12-13T19:36:32.699Z,98990.00
2022-12-13T19:39:00.954Z,98991.00
2022-12-13T19:41:29.492Z,98985.00
2022-12-13T19:43:57.551Z,98991.00
2022-12-13T19:46:25.940Z,98986.00
2022-12-13T19:48:55.646Z,98980.00
2022-12-13T19:51:24.653Z,98970.00
2022-12-13T19:53:53.199Z,98955.00
2022-12-13T19:56:22.780Z,98975.00
2022-12-13T19:58:51.545Z,98975.00
2022-12-13T20:01:20.069Z,98967.00
2022-12-13T20:03:48.795Z,98975.00
2022-12-13T20:06:22.038Z,98968.00
2022-12-13T20:08:51.730Z,98968.00
2022-12-13T20:11:23.005Z,98968.00
2022-12-13T20:13:55.509Z,98962.00
2022-12-13T20:16:26.637Z,98965.00
2022-12-13T20:18:57.572Z,98968.00
2022-12-13T20:21:27.969Z,98964.00
2022-12-13T20:23:57.644Z,98970.00
2022-12-13T20:26:28.953Z,98970.00
2022-12-13T20:28:57.111Z,98958.00
2022-12-13T20:31:27.137Z,98962.00
2022-12-13T20:33:57.075Z,98900.00
2022-12-13T20:36:28.927Z,98959.00
2022-12-13T20:38:59.503Z,98963.00
2022-12-13T20:41:31.722Z,98967.00
2022-12-13T20:44:01.520Z,98958.00
2022-12-13T20:46:31.410Z,98967.00
2022-12-13T20:49:02.866Z,98955.00
2022-12-13T20:51:33.628Z,98952.00
2022-12-13T20:54:01.960Z,98957.00
2022-12-13T20:56:34.919Z,98961.00
2022-12-13T20:59:03.536Z,98950.00
2022-12-13T21:01:34.939Z,98941.00
2022-12-13T21:04:06.481Z,98953.00
2022-12-13T21:06:39.895Z,98930.00
2022-12-13T21:09:10.387Z,98941.00
2022-12-13T21:11:40.932Z,98942.00
2022-12-13T21:14:20.735Z,98949.00
2022-12-13T21:16:52.874Z,98945.00
2022-12-13T21:19:23.507Z,98939.00
2022-12-13T21:21:54.388Z,98922.00
2022-12-13T21:24:24.687Z,98895.00
2022-12-13T21:26:53.048Z,98924.00
2022-12-13T21:29:21.081Z,98929.00
2022-12-13T21:31:50.986Z,98924.00
2022-12-13T21:34:21.505Z,98920.00
2022-12-13T21:36:53.191Z,98896.00
2022-12-13T21:39:23.986Z,98902.00
2022-12-13T21:41:52.218Z,98919.00
2022-12-13T21:44:20.571Z,98910.00
2022-12-13T21:49:36.959Z,98907.00
2022-12-13T21:52:06.735Z,98907.00
2022-12-13T21:54:34.755Z,98901.00
2022-12-13T21:57:20.512Z,98896.00
2022-12-13T21:59:48.512Z,98891.00
2022-12-13T22:02:19.385Z,98894.00
2022-12-13T22:04:50.190Z,98881.00
2022-12-13T22:07:22.663Z,98897.00
2022-12-13T22:09:52.995Z,98898.00
2022-12-13T22:12:24.497Z,98904.00
2022-12-13T22:14:54.287Z,98897.00
2022-12-13T22:17:29.647Z,98894.00
2022-12-13T22:20:02.037Z,98887.00
2022-12-13T22:22:31.675Z,98886.00
2022-12-13T22:24:59.876Z,98894.00
2022-12-13T22:27:28.056Z,98885.00
2022-12-13T22:29:58.238Z,98867.00
2022-12-13T22:32:32.093Z,98883.00
2022-12-13T22:35:00.232Z,98882.00
2022-12-13T22:37:28.624Z,98879.00
2022-12-13T22:39:58.041Z,98876.00
2022-12-13T22:42:26.173Z,98880.00
2022-12-13T22:44:54.185Z,98859.00
2022-12-13T22:47:22.200Z,98863.00
2022-12-13T22:49:50.312Z,98863.00
2022-12-13T22:52:18.447Z,98861.00
2022-12-13T22:54:46.501Z,98861.00
2022-12-13T22:57:16.929Z,98849.00
2022-12-13T22:59:44.994Z,98850.00
2022-12-13T23:02:13.169Z,98843.00
2022-12-13T23:04:41.358Z,98844.00
2022-12-13T23:07:10.047Z,98829.00
2022-12-13T23:09:38.088Z,98837.00
2022-12-13T23:12:24.488Z,98838.00
2022-12-13T23:14:53.900Z,98830.00
2022-12-13T23:17:21.923Z,98832.00
2022-12-13T23:19:53.181Z,98826.00
2022-12-13T23:22:22.814Z,98824.00
2022-12-13T23:24:51.357Z,98820.00
2022-12-13T23:27:22.717Z,98811.00
2022-12-13T23:29:50.828Z,98812.00
2022-12-13T23:32:20.415Z,98813.00
2022-12-13T23:34:48.431Z,98813.00
2022-12-13T23:37:16.559Z,98800.00
2022-12-13T23:39:44.575Z,98799.00
2022-12-13T23:42:12.639Z,98791.00
2022-12-13T23:44:40.743Z,98792.00
2022-12-13T23:47:08.790Z,98797.00
2022-12-13T23:49:38.126Z,98796.00
2022-12-13T23:52:06.192Z,98780.00
2022-12-13T23:54:34.216Z,98782.00
2022-12-13T23:57:02.336Z,98773.00
2022-12-13T23:59:30.406Z,98771.00
